Esther, Alberta

Past 24 Hour Conditions

This table is a summary of hourly weather conditions for the past 24 hours. This summary includes the following parameters: temperature, humidity, dew point, wind speed and direction, air pressure, visibility and/or wind chill and humidex.
Date / Time
(MDT)
Conditions Temp (°F) Humidity (%) Dew Point (°F) Wind (mph) Pressure (inches) Visibility (miles)
17 September 2014
15:00 N/A 75 28 41 ESE 15 29.8 N/A
14:00 N/A 75 34 44 E 14 gust 23 29.8 N/A
13:00 N/A 72 40 46 E 14 29.9 N/A
12:00 N/A 67 46 45 E 12 29.9 N/A
11:00 N/A N/A N/A N/A N/A N/A N/A
10:00 N/A N/A N/A N/A N/A N/A N/A
9:00 N/A N/A N/A N/A N/A N/A N/A
8:00 N/A 48 76 41 ESE 8 29.9 N/A
7:00 N/A 46 81 40 E 8 29.9 N/A
6:00 N/A 45   82 40 ESE 7 29.9 N/A
5:00 N/A 47 72 39 ENE 8 29.9 N/A
4:00 N/A 55 56 40 SE 11 29.9 N/A
3:00 N/A 47 72 39 calm 29.9 N/A
2:00 N/A 49 74 41 E 7 29.9 N/A
1:00 N/A 53 67 43 ESE 8 29.9 N/A
00:00 N/A 55 64 43 SE 10 29.9 N/A
16 September 2014
23:00 N/A 57 57 42 ESE 5 29.9 N/A
22:00 N/A 58 62 45 SE 9 29.9 N/A
21:00 N/A 58 62 45 SE 6 29.9 N/A
20:00 N/A 63 59 44 ESE 5 29.9 N/A
19:00 N/A 72 39 45 NNW 3 29.9 N/A
18:00 N/A 77 27 40 WNW 4 29.9 N/A
17:00 N/A 78   28 42 W 5 29.9 N/A
16:00 N/A 77 27 40 W 5 29.9 N/A
15:00 N/A 77 28 41 W 5 29.9 N/A
N/A
Not available
 ↑ 
Highest temperature
 ↓ 
Lowest temperature

If you require additional historical weather information, please visit Climate Data Online.